AirNav   Everest Fuels
 
 607 users online  

00KY Robbins Roost Airport
Stanford, Kentucky, USA

GOING TO STANFORD?


FAA INFORMATION EFFECTIVE 18 JUNE 2020

Location

FAA Identifier: 00KY
Lat/Long: 37-24-34.0000N 084-37-11.0000W
37-24.566667N 084-37.183333W
37.4094444,-84.6197222
(estimated)
Elevation: 1265 ft. / 386 m (estimated)
From city: 8 miles SE of STANFORD, KY
Time zone: UTC -4 (UTC -5 during Standard Time)
Zip code: 40489

Airport Operations

Airport use: Private use. Permission required prior to landing
Activation date: 08/2003
Control tower: no
ARTCC: INDIANAPOLIS CENTER
FSS: LOUISVILLE FLIGHT SERVICE STATION
Attendance: UNATNDD
Wind indicator: yes
Segmented circle: no

Airport Communications

WX AWOS-3 at DVK (12 nm NW): 128.325 (859-854-0058)
WX AWOS-3 at RGA (19 nm NE): 119.625 (859-985-5969)

Nearby radio navigation aids

VOR radial/distance  VOR name  Freq  Var
LOZr316/33.2LONDON VOR/DME116.1003W
HYKr192/34.1LEXINGTON VOR/DME112.6000E

 
NDB name  Hdg/Dist  Freq  Var  ID
GOODALL149/12.131103WDVK -.. ...- -.-
CUMBERLAND RIVER012/25.038805WCDX -.-. -.. -..-
SECO236/35.039303WXYC -..- -.-- -.-.

Airport Services

Runway Information

Runway 1/19

Dimensions: 2100 x 100 ft. / 640 x 30 m
Surface: turf
RUNWAY 1  RUNWAY 19
Traffic pattern: leftleft
Obstructions: none30 ft. trees, 600 ft. from runway

Airport Ownership and Management from official FAA records

Ownership: Privately-owned
Owner: HAROLD ROBBINS
4050 WISPERING PINES TRL NW
CONYERS, GA 30012-6308
Phone (606) 669-3207
CELL: 606-669-3207
Manager: MARK ROBBINS
4050 WISPERING PINES TRL NW
CONYERS, GA 30012-6308
Phone (859) 319-1863
CELL: 859-319-1863

Airport Operational Statistics

Aircraft based on the field: 1
Single engine airplanes: 1
    

Additional Remarks

FOR CD CTC INDIANAPOLIS ARTCC AT 317-247-2411.

Instrument Procedures

There are no published instrument procedures at 00KY.

Some nearby airports with instrument procedures:

KDVK - Stuart Powell Field Airport (12 nm NW)
KRGA - Central Kentucky Regional Airport (19 nm NE)
KSME - Lake Cumberland Regional Airport (21 nm S)
KLOZ - London-Corbin Airport-Magee Field (32 nm SE)
6I2 - Lebanon Springfield Airport-George Hoerter Field (33 nm NW)
 
Loc | Ops | Rwys | IFR | FBO | Links
Com | Nav | Svcs | Stats | Notes
Area around 00KY (Robbins Roost Airport)
 
Road maps at: MapQuest Bing Google
 
Aerial photo
WARNING: Photo may not be current or correct
Aerial photo of 00KY (Robbins Roost Airport)
Do you have a better or more recent aerial photo of Robbins Roost Airport that you would like to share? If so, please send us your photo.

 
Sectional chart

 
Airport distance calculator
Flying to Robbins Roost Airport? Find the distance to fly.

From to 00KY

Sunrise and sunset
Times for 14-Jul-2020
 Local
(UTC-4)
 Zulu
(UTC)
Morning civil twilight06:0010:00
Sunrise06:3110:31
Sunset20:5800:58
Evening civil twilight21:2901:29

Current date and time
Zulu (UTC)  14-Jul-2020 11:25:43
Local (UTC-4)  14-Jul-2020 07:25:43
 
METAR
KDVK 
12nm NW 
141050Z AUTO 00000KT 10SM CLR 15/15 A3006 RMK AO2
KRGA 
19nm NE 
141055Z AUTO 00000KT 10SM CLR 16/15 A3004 RMK AO2
KSME 
22nm S 
141055Z AUTO 00000KT 10SM CLR 15/15 A3006 RMK AO2
TAF
KSME 
22nm S 
140856Z 1409/1506 00000KT P6SM SKC TEMPO 1410/1412 4SM BR SKC FM141600 VRB03KT P6SM SCT050 FM142300 VRB03KT P6SM SKC
NOTAMs
Click for the latest NOTAMs
NOTAMs are issued by the DoD/FAA and will open in a separate window not controlled by AirNav.

 

 
 

Would you like to see your business listed on this page?

 If your business provides an interesting product or service to pilots, flight crews, aircraft, or users of the Robbins Roost Airport, you should consider listing it here.  To start the listing process, click on the button below
 
Add a business
 

Other Pages about Robbins Roost Airport

Update a link
 
Copyright © AirNav, LLC. All rights reserved. Privacy Policy  Contact